sensor_id;sensor_type;location;lat;lon;timestamp;P1;durP1;ratioP1;P2;durP2;ratioP2
12433;SDS011;6281;49.038;8.372;2023-09-19T00:00:46;2.77;;;1.20;;
12433;SDS011;6281;49.038;8.372;2023-09-19T00:03:13;0.63;;;0.60;;
12433;SDS011;6281;49.038;8.372;2023-09-19T00:05:40;2.10;;;0.67;;
12433;SDS011;6281;49.038;8.372;2023-09-19T00:08:09;1.83;;;0.83;;
12433;SDS011;6281;49.038;8.372;2023-09-19T00:10:38;1.97;;;0.90;;
12433;SDS011;6281;49.038;8.372;2023-09-19T00:13:08;1.50;;;1.10;;
12433;SDS011;6281;49.038;8.372;2023-09-19T00:15:39;2.53;;;0.90;;
12433;SDS011;6281;49.038;8.372;2023-09-19T00:18:07;2.53;;;0.83;;
12433;SDS011;6281;49.038;8.372;2023-09-19T00:20:35;1.30;;;0.80;;
12433;SDS011;6281;49.038;8.372;2023-09-19T00:23:03;1.37;;;0.80;;
12433;SDS011;6281;49.038;8.372;2023-09-19T00:25:34;1.97;;;0.90;;
12433;SDS011;6281;49.038;8.372;2023-09-19T00:28:03;3.27;;;0.80;;
12433;SDS011;6281;49.038;8.372;2023-09-19T00:30:37;1.67;;;1.00;;
12433;SDS011;6281;49.038;8.372;2023-09-19T00:33:11;2.77;;;0.90;;
12433;SDS011;6281;49.038;8.372;2023-09-19T00:35:49;3.07;;;0.83;;
12433;SDS011;6281;49.038;8.372;2023-09-19T00:38:21;1.93;;;0.90;;
12433;SDS011;6281;49.038;8.372;2023-09-19T00:40:54;1.40;;;0.70;;
12433;SDS011;6281;49.038;8.372;2023-09-19T00:43:26;2.40;;;1.00;;
12433;SDS011;6281;49.038;8.372;2023-09-19T00:46:01;1.53;;;0.87;;
12433;SDS011;6281;49.038;8.372;2023-09-19T00:48:29;1.33;;;0.67;;
12433;SDS011;6281;49.038;8.372;2023-09-19T00:50:57;1.27;;;0.70;;
12433;SDS011;6281;49.038;8.372;2023-09-19T00:53:32;2.47;;;0.90;;
12433;SDS011;6281;49.038;8.372;2023-09-19T00:56:00;2.77;;;0.70;;
12433;SDS011;6281;49.038;8.372;2023-09-19T00:58:29;0.77;;;0.60;;
12433;SDS011;6281;49.038;8.372;2023-09-19T01:01:04;1.50;;;0.83;;
12433;SDS011;6281;49.038;8.372;2023-09-19T01:03:40;2.60;;;0.97;;
12433;SDS011;6281;49.038;8.372;2023-09-19T01:06:09;1.63;;;0.87;;
12433;SDS011;6281;49.038;8.372;2023-09-19T01:08:39;1.60;;;0.67;;
12433;SDS011;6281;49.038;8.372;2023-09-19T01:11:08;1.80;;;0.90;;
12433;SDS011;6281;49.038;8.372;2023-09-19T01:13:43;1.37;;;1.00;;
12433;SDS011;6281;49.038;8.372;2023-09-19T01:16:26;1.97;;;0.80;;
12433;SDS011;6281;49.038;8.372;2023-09-19T01:19:02;0.90;;;0.73;;
12433;SDS011;6281;49.038;8.372;2023-09-19T01:21:54;1.40;;;0.70;;
12433;SDS011;6281;49.038;8.372;2023-09-19T01:24:34;0.90;;;0.53;;
12433;SDS011;6281;49.038;8.372;2023-09-19T01:30:35;0.63;;;0.40;;
12433;SDS011;6281;49.038;8.372;2023-09-19T01:33:05;2.87;;;0.70;;
12433;SDS011;6281;49.038;8.372;2023-09-19T01:35:37;1.30;;;0.87;;
12433;SDS011;6281;49.038;8.372;2023-09-19T01:38:04;2.40;;;0.80;;
12433;SDS011;6281;49.038;8.372;2023-09-19T01:40:38;0.67;;;0.60;;
12433;SDS011;6281;49.038;8.372;2023-09-19T01:43:09;0.80;;;0.60;;
12433;SDS011;6281;49.038;8.372;2023-09-19T01:45:49;3.20;;;0.70;;
12433;SDS011;6281;49.038;8.372;2023-09-19T01:48:23;1.77;;;1.13;;
12433;SDS011;6281;49.038;8.372;2023-09-19T01:51:05;1.30;;;0.80;;
12433;SDS011;6281;49.038;8.372;2023-09-19T01:53:35;3.07;;;0.93;;
12433;SDS011;6281;49.038;8.372;2023-09-19T01:56:28;1.03;;;0.80;;
12433;SDS011;6281;49.038;8.372;2023-09-19T01:59:02;1.47;;;0.80;;
12433;SDS011;6281;49.038;8.372;2023-09-19T02:01:45;0.77;;;0.60;;
12433;SDS011;6281;49.038;8.372;2023-09-19T02:04:12;2.07;;;0.77;;
12433;SDS011;6281;49.038;8.372;2023-09-19T02:06:42;1.53;;;0.70;;
12433;SDS011;6281;49.038;8.372;2023-09-19T02:09:13;2.10;;;0.87;;
12433;SDS011;6281;49.038;8.372;2023-09-19T02:11:40;0.90;;;0.70;;
12433;SDS011;6281;49.038;8.372;2023-09-19T02:14:07;0.70;;;0.70;;
12433;SDS011;6281;49.038;8.372;2023-09-19T02:16:36;1.10;;;0.80;;
12433;SDS011;6281;49.038;8.372;2023-09-19T02:19:06;1.67;;;0.70;;
12433;SDS011;6281;49.038;8.372;2023-09-19T02:21:35;4.10;;;1.10;;
12433;SDS011;6281;49.038;8.372;2023-09-19T02:24:04;4.23;;;1.03;;
12433;SDS011;6281;49.038;8.372;2023-09-19T02:26:32;1.33;;;0.90;;
12433;SDS011;6281;49.038;8.372;2023-09-19T02:29:01;1.73;;;1.10;;
12433;SDS011;6281;49.038;8.372;2023-09-19T02:31:29;1.57;;;0.80;;
12433;SDS011;6281;49.038;8.372;2023-09-19T02:33:56;1.53;;;0.90;;
12433;SDS011;6281;49.038;8.372;2023-09-19T02:36:26;3.17;;;1.13;;
12433;SDS011;6281;49.038;8.372;2023-09-19T02:38:56;1.67;;;0.60;;
12433;SDS011;6281;49.038;8.372;2023-09-19T02:41:23;3.07;;;1.03;;
12433;SDS011;6281;49.038;8.372;2023-09-19T02:43:54;1.53;;;0.80;;
12433;SDS011;6281;49.038;8.372;2023-09-19T02:46:24;2.43;;;0.97;;
12433;SDS011;6281;49.038;8.372;2023-09-19T02:48:52;2.20;;;0.83;;
12433;SDS011;6281;49.038;8.372;2023-09-19T02:51:22;1.83;;;1.10;;
12433;SDS011;6281;49.038;8.372;2023-09-19T02:53:51;2.07;;;1.13;;
12433;SDS011;6281;49.038;8.372;2023-09-19T02:56:30;1.10;;;0.97;;
12433;SDS011;6281;49.038;8.372;2023-09-19T02:58:57;3.40;;;1.07;;
12433;SDS011;6281;49.038;8.372;2023-09-19T03:01:33;1.23;;;1.00;;
12433;SDS011;6281;49.038;8.372;2023-09-19T03:04:03;1.33;;;1.10;;
12433;SDS011;6281;49.038;8.372;2023-09-19T03:06:32;1.60;;;1.10;;
12433;SDS011;6281;49.038;8.372;2023-09-19T03:09:01;1.40;;;1.00;;
12433;SDS011;6281;49.038;8.372;2023-09-19T03:11:33;1.37;;;1.07;;
12433;SDS011;6281;49.038;8.372;2023-09-19T03:14:00;2.80;;;1.33;;
12433;SDS011;6281;49.038;8.372;2023-09-19T03:16:33;1.20;;;1.10;;
12433;SDS011;6281;49.038;8.372;2023-09-19T03:19:02;4.50;;;1.23;;
12433;SDS011;6281;49.038;8.372;2023-09-19T03:21:32;1.63;;;1.30;;
12433;SDS011;6281;49.038;8.372;2023-09-19T03:24:05;5.17;;;1.50;;
12433;SDS011;6281;49.038;8.372;2023-09-19T03:26:35;2.00;;;1.27;;
12433;SDS011;6281;49.038;8.372;2023-09-19T03:29:07;1.90;;;1.40;;
12433;SDS011;6281;49.038;8.372;2023-09-19T03:31:35;2.60;;;1.30;;
12433;SDS011;6281;49.038;8.372;2023-09-19T03:34:03;3.27;;;1.30;;
12433;SDS011;6281;49.038;8.372;2023-09-19T03:36:30;2.40;;;1.20;;
12433;SDS011;6281;49.038;8.372;2023-09-19T03:38:59;2.97;;;1.40;;
12433;SDS011;6281;49.038;8.372;2023-09-19T03:41:27;2.93;;;1.30;;
12433;SDS011;6281;49.038;8.372;2023-09-19T03:43:57;2.37;;;1.50;;
12433;SDS011;6281;49.038;8.372;2023-09-19T03:46:31;2.33;;;1.20;;
12433;SDS011;6281;49.038;8.372;2023-09-19T03:49:04;1.70;;;1.23;;
12433;SDS011;6281;49.038;8.372;2023-09-19T03:51:35;1.97;;;1.20;;
12433;SDS011;6281;49.038;8.372;2023-09-19T03:54:09;3.20;;;1.17;;
12433;SDS011;6281;49.038;8.372;2023-09-19T03:56:37;4.03;;;1.60;;
12433;SDS011;6281;49.038;8.372;2023-09-19T03:59:04;1.50;;;1.20;;
12433;SDS011;6281;49.038;8.372;2023-09-19T04:01:33;5.53;;;1.37;;
12433;SDS011;6281;49.038;8.372;2023-09-19T04:04:02;1.80;;;1.50;;
12433;SDS011;6281;49.038;8.372;2023-09-19T04:06:40;2.23;;;1.00;;
12433;SDS011;6281;49.038;8.372;2023-09-19T04:09:07;4.50;;;1.20;;
12433;SDS011;6281;49.038;8.372;2023-09-19T04:11:34;1.93;;;1.20;;
12433;SDS011;6281;49.038;8.372;2023-09-19T04:14:08;4.83;;;1.30;;
12433;SDS011;6281;49.038;8.372;2023-09-19T04:16:38;2.70;;;1.30;;
12433;SDS011;6281;49.038;8.372;2023-09-19T04:19:08;2.13;;;1.27;;
12433;SDS011;6281;49.038;8.372;2023-09-19T04:21:42;4.43;;;1.70;;
12433;SDS011;6281;49.038;8.372;2023-09-19T04:24:14;4.97;;;1.50;;
12433;SDS011;6281;49.038;8.372;2023-09-19T04:26:48;3.23;;;1.53;;
12433;SDS011;6281;49.038;8.372;2023-09-19T04:29:15;2.87;;;1.30;;
12433;SDS011;6281;49.038;8.372;2023-09-19T04:31:44;3.63;;;1.23;;
12433;SDS011;6281;49.038;8.372;2023-09-19T04:34:11;3.23;;;1.40;;
12433;SDS011;6281;49.038;8.372;2023-09-19T04:36:40;2.63;;;1.43;;
12433;SDS011;6281;49.038;8.372;2023-09-19T04:39:08;2.30;;;1.43;;
12433;SDS011;6281;49.038;8.372;2023-09-19T04:41:37;2.33;;;1.33;;
12433;SDS011;6281;49.038;8.372;2023-09-19T04:44:08;3.17;;;1.40;;
12433;SDS011;6281;49.038;8.372;2023-09-19T04:46:36;2.37;;;1.50;;
12433;SDS011;6281;49.038;8.372;2023-09-19T04:49:03;1.30;;;1.20;;
12433;SDS011;6281;49.038;8.372;2023-09-19T04:51:34;3.70;;;1.20;;
12433;SDS011;6281;49.038;8.372;2023-09-19T04:54:01;2.40;;;1.40;;
12433;SDS011;6281;49.038;8.372;2023-09-19T04:56:28;2.27;;;1.40;;
12433;SDS011;6281;49.038;8.372;2023-09-19T04:59:05;3.50;;;1.40;;
12433;SDS011;6281;49.038;8.372;2023-09-19T05:01:39;2.37;;;1.37;;
12433;SDS011;6281;49.038;8.372;2023-09-19T05:04:06;2.57;;;1.23;;
12433;SDS011;6281;49.038;8.372;2023-09-19T05:06:36;5.03;;;1.27;;
12433;SDS011;6281;49.038;8.372;2023-09-19T05:09:03;2.50;;;1.30;;
12433;SDS011;6281;49.038;8.372;2023-09-19T05:11:30;4.73;;;1.37;;
12433;SDS011;6281;49.038;8.372;2023-09-19T05:13:59;5.10;;;1.57;;
12433;SDS011;6281;49.038;8.372;2023-09-19T05:16:30;2.57;;;1.30;;
12433;SDS011;6281;49.038;8.372;2023-09-19T05:18:57;2.67;;;1.53;;
12433;SDS011;6281;49.038;8.372;2023-09-19T05:21:29;3.33;;;1.50;;
12433;SDS011;6281;49.038;8.372;2023-09-19T05:24:01;2.37;;;1.60;;
12433;SDS011;6281;49.038;8.372;2023-09-19T05:26:28;2.63;;;1.50;;
12433;SDS011;6281;49.038;8.372;2023-09-19T05:28:58;3.00;;;1.70;;
12433;SDS011;6281;49.038;8.372;2023-09-19T05:31:26;2.30;;;1.47;;
12433;SDS011;6281;49.038;8.372;2023-09-19T05:33:54;5.07;;;1.60;;
12433;SDS011;6281;49.038;8.372;2023-09-19T05:36:21;3.43;;;1.70;;
12433;SDS011;6281;49.038;8.372;2023-09-19T05:38:50;1.90;;;1.43;;
12433;SDS011;6281;49.038;8.372;2023-09-19T05:41:18;5.90;;;2.00;;
12433;SDS011;6281;49.038;8.372;2023-09-19T05:43:51;3.73;;;2.10;;
12433;SDS011;6281;49.038;8.372;2023-09-19T05:46:31;3.27;;;2.13;;
12433;SDS011;6281;49.038;8.372;2023-09-19T05:49:02;4.43;;;2.20;;
12433;SDS011;6281;49.038;8.372;2023-09-19T05:51:29;3.03;;;1.70;;
12433;SDS011;6281;49.038;8.372;2023-09-19T05:53:57;3.97;;;1.83;;
12433;SDS011;6281;49.038;8.372;2023-09-19T05:56:26;4.03;;;1.97;;
12433;SDS011;6281;49.038;8.372;2023-09-19T05:58:53;4.77;;;1.67;;
12433;SDS011;6281;49.038;8.372;2023-09-19T06:01:20;3.30;;;1.70;;
12433;SDS011;6281;49.038;8.372;2023-09-19T06:03:48;2.30;;;1.63;;
12433;SDS011;6281;49.038;8.372;2023-09-19T06:06:31;3.63;;;1.93;;
12433;SDS011;6281;49.038;8.372;2023-09-19T06:09:01;2.77;;;1.50;;
12433;SDS011;6281;49.038;8.372;2023-09-19T06:11:34;1.40;;;1.30;;
12433;SDS011;6281;49.038;8.372;2023-09-19T06:14:01;2.90;;;1.50;;
12433;SDS011;6281;49.038;8.372;2023-09-19T06:16:28;3.17;;;1.30;;
12433;SDS011;6281;49.038;8.372;2023-09-19T06:18:58;3.03;;;1.40;;
12433;SDS011;6281;49.038;8.372;2023-09-19T06:21:27;3.03;;;1.57;;
12433;SDS011;6281;49.038;8.372;2023-09-19T06:23:54;4.27;;;1.60;;
12433;SDS011;6281;49.038;8.372;2023-09-19T06:26:26;2.37;;;1.30;;
12433;SDS011;6281;49.038;8.372;2023-09-19T06:28:53;3.20;;;1.30;;
12433;SDS011;6281;49.038;8.372;2023-09-19T06:31:20;3.53;;;1.27;;
12433;SDS011;6281;49.038;8.372;2023-09-19T06:33:51;3.63;;;1.33;;
12433;SDS011;6281;49.038;8.372;2023-09-19T06:36:21;4.53;;;1.37;;
12433;SDS011;6281;49.038;8.372;2023-09-19T06:38:50;5.33;;;1.23;;
12433;SDS011;6281;49.038;8.372;2023-09-19T06:41:17;2.00;;;1.23;;
12433;SDS011;6281;49.038;8.372;2023-09-19T06:43:44;3.60;;;1.23;;
12433;SDS011;6281;49.038;8.372;2023-09-19T06:46:11;4.43;;;1.40;;
12433;SDS011;6281;49.038;8.372;2023-09-19T06:48:38;3.27;;;1.23;;
12433;SDS011;6281;49.038;8.372;2023-09-19T06:51:06;3.73;;;1.77;;
12433;SDS011;6281;49.038;8.372;2023-09-19T06:53:36;2.37;;;1.60;;
12433;SDS011;6281;49.038;8.372;2023-09-19T06:56:09;2.20;;;1.20;;
12433;SDS011;6281;49.038;8.372;2023-09-19T06:58:38;4.83;;;1.50;;
12433;SDS011;6281;49.038;8.372;2023-09-19T07:01:06;3.97;;;1.30;;
12433;SDS011;6281;49.038;8.372;2023-09-19T07:03:36;2.97;;;1.40;;
12433;SDS011;6281;49.038;8.372;2023-09-19T07:06:03;3.40;;;1.43;;
12433;SDS011;6281;49.038;8.372;2023-09-19T07:08:32;1.57;;;1.17;;
12433;SDS011;6281;49.038;8.372;2023-09-19T07:11:05;6.03;;;1.40;;
12433;SDS011;6281;49.038;8.372;2023-09-19T07:13:35;4.80;;;1.43;;
12433;SDS011;6281;49.038;8.372;2023-09-19T07:16:06;2.53;;;1.50;;
12433;SDS011;6281;49.038;8.372;2023-09-19T07:18:34;3.30;;;2.03;;
12433;SDS011;6281;49.038;8.372;2023-09-19T07:21:03;4.13;;;1.77;;
12433;SDS011;6281;49.038;8.372;2023-09-19T07:23:30;2.60;;;1.57;;
12433;SDS011;6281;49.038;8.372;2023-09-19T07:25:59;4.50;;;1.40;;
12433;SDS011;6281;49.038;8.372;2023-09-19T07:28:30;2.80;;;1.30;;
12433;SDS011;6281;49.038;8.372;2023-09-19T07:30:59;2.80;;;1.90;;
12433;SDS011;6281;49.038;8.372;2023-09-19T07:33:28;4.07;;;1.37;;
12433;SDS011;6281;49.038;8.372;2023-09-19T07:35:55;4.00;;;1.30;;
12433;SDS011;6281;49.038;8.372;2023-09-19T07:38:22;2.57;;;1.50;;
12433;SDS011;6281;49.038;8.372;2023-09-19T07:40:49;2.23;;;2.00;;
12433;SDS011;6281;49.038;8.372;2023-09-19T07:43:19;2.70;;;1.40;;
12433;SDS011;6281;49.038;8.372;2023-09-19T07:45:49;4.03;;;1.77;;
12433;SDS011;6281;49.038;8.372;2023-09-19T07:48:17;2.40;;;1.67;;
12433;SDS011;6281;49.038;8.372;2023-09-19T07:50:44;5.07;;;1.83;;
12433;SDS011;6281;49.038;8.372;2023-09-19T07:53:11;3.03;;;1.10;;
12433;SDS011;6281;49.038;8.372;2023-09-19T07:55:45;2.37;;;1.33;;
12433;SDS011;6281;49.038;8.372;2023-09-19T07:58:14;2.63;;;1.70;;
12433;SDS011;6281;49.038;8.372;2023-09-19T08:00:43;4.70;;;1.80;;
12433;SDS011;6281;49.038;8.372;2023-09-19T08:03:11;3.73;;;1.67;;
12433;SDS011;6281;49.038;8.372;2023-09-19T08:05:45;3.33;;;1.70;;
12433;SDS011;6281;49.038;8.372;2023-09-19T08:08:13;3.00;;;1.30;;
12433;SDS011;6281;49.038;8.372;2023-09-19T08:10:51;4.97;;;1.30;;
12433;SDS011;6281;49.038;8.372;2023-09-19T08:13:21;4.13;;;1.57;;
12433;SDS011;6281;49.038;8.372;2023-09-19T08:15:52;2.73;;;1.20;;
12433;SDS011;6281;49.038;8.372;2023-09-19T08:18:19;4.10;;;1.17;;
12433;SDS011;6281;49.038;8.372;2023-09-19T08:20:50;2.87;;;0.97;;
12433;SDS011;6281;49.038;8.372;2023-09-19T08:23:26;1.63;;;0.90;;
12433;SDS011;6281;49.038;8.372;2023-09-19T08:25:57;5.37;;;1.20;;
12433;SDS011;6281;49.038;8.372;2023-09-19T08:28:28;1.40;;;0.90;;
12433;SDS011;6281;49.038;8.372;2023-09-19T08:31:00;1.27;;;0.90;;
12433;SDS011;6281;49.038;8.372;2023-09-19T08:33:32;2.90;;;1.00;;
12433;SDS011;6281;49.038;8.372;2023-09-19T08:36:04;2.43;;;0.93;;
12433;SDS011;6281;49.038;8.372;2023-09-19T08:38:35;1.07;;;0.80;;
12433;SDS011;6281;49.038;8.372;2023-09-19T08:41:05;1.20;;;0.70;;
12433;SDS011;6281;49.038;8.372;2023-09-19T08:43:38;2.23;;;0.80;;
12433;SDS011;6281;49.038;8.372;2023-09-19T08:46:14;2.40;;;1.00;;
12433;SDS011;6281;49.038;8.372;2023-09-19T08:48:52;2.87;;;0.90;;
12433;SDS011;6281;49.038;8.372;2023-09-19T08:51:26;3.70;;;1.07;;
12433;SDS011;6281;49.038;8.372;2023-09-19T08:54:02;1.23;;;0.83;;
12433;SDS011;6281;49.038;8.372;2023-09-19T08:56:32;2.13;;;0.90;;
12433;SDS011;6281;49.038;8.372;2023-09-19T08:59:04;1.23;;;0.80;;
12433;SDS011;6281;49.038;8.372;2023-09-19T09:01:36;1.63;;;0.60;;
12433;SDS011;6281;49.038;8.372;2023-09-19T09:04:06;1.30;;;0.80;;
12433;SDS011;6281;49.038;8.372;2023-09-19T09:06:39;1.60;;;1.00;;
12433;SDS011;6281;49.038;8.372;2023-09-19T09:09:15;1.43;;;0.80;;
12433;SDS011;6281;49.038;8.372;2023-09-19T09:11:43;4.33;;;0.60;;
12433;SDS011;6281;49.038;8.372;2023-09-19T09:14:14;2.53;;;1.10;;
12433;SDS011;6281;49.038;8.372;2023-09-19T09:16:46;2.80;;;0.80;;
12433;SDS011;6281;49.038;8.372;2023-09-19T09:19:15;2.50;;;0.90;;
12433;SDS011;6281;49.038;8.372;2023-09-19T09:21:50;1.27;;;0.80;;
12433;SDS011;6281;49.038;8.372;2023-09-19T09:24:26;1.63;;;0.70;;
12433;SDS011;6281;49.038;8.372;2023-09-19T09:26:54;1.80;;;0.80;;
12433;SDS011;6281;49.038;8.372;2023-09-19T09:29:29;1.73;;;0.87;;
12433;SDS011;6281;49.038;8.372;2023-09-19T09:32:20;4.90;;;1.10;;
12433;SDS011;6281;49.038;8.372;2023-09-19T09:35:02;2.63;;;0.87;;
12433;SDS011;6281;49.038;8.372;2023-09-19T09:37:38;2.53;;;0.90;;
12433;SDS011;6281;49.038;8.372;2023-09-19T09:40:09;2.33;;;1.00;;
12433;SDS011;6281;49.038;8.372;2023-09-19T09:43:01;1.40;;;0.80;;
12433;SDS011;6281;49.038;8.372;2023-09-19T09:45:28;3.03;;;0.90;;
12433;SDS011;6281;49.038;8.372;2023-09-19T09:48:05;2.23;;;1.00;;
12433;SDS011;6281;49.038;8.372;2023-09-19T09:50:46;2.20;;;0.90;;
12433;SDS011;6281;49.038;8.372;2023-09-19T09:53:22;0.67;;;0.67;;
12433;SDS011;6281;49.038;8.372;2023-09-19T09:55:56;1.93;;;1.00;;
12433;SDS011;6281;49.038;8.372;2023-09-19T09:58:31;1.53;;;0.80;;
12433;SDS011;6281;49.038;8.372;2023-09-19T10:00:59;1.40;;;0.70;;
12433;SDS011;6281;49.038;8.372;2023-09-19T10:03:36;3.73;;;1.17;;
12433;SDS011;6281;49.038;8.372;2023-09-19T10:06:10;3.17;;;1.00;;
12433;SDS011;6281;49.038;8.372;2023-09-19T10:09:02;1.40;;;0.90;;
12433;SDS011;6281;49.038;8.372;2023-09-19T10:11:38;3.00;;;0.97;;
12433;SDS011;6281;49.038;8.372;2023-09-19T10:14:12;1.80;;;1.00;;
12433;SDS011;6281;49.038;8.372;2023-09-19T10:16:44;1.17;;;0.60;;
12433;SDS011;6281;49.038;8.372;2023-09-19T10:19:15;2.57;;;0.83;;
12433;SDS011;6281;49.038;8.372;2023-09-19T10:21:49;4.17;;;1.10;;
12433;SDS011;6281;49.038;8.372;2023-09-19T10:24:21;1.73;;;0.80;;
12433;SDS011;6281;49.038;8.372;2023-09-19T10:27:01;2.63;;;0.80;;
12433;SDS011;6281;49.038;8.372;2023-09-19T10:29:33;3.23;;;1.10;;
12433;SDS011;6281;49.038;8.372;2023-09-19T10:32:05;2.40;;;1.07;;
12433;SDS011;6281;49.038;8.372;2023-09-19T10:34:34;2.80;;;0.90;;
12433;SDS011;6281;49.038;8.372;2023-09-19T10:37:02;1.53;;;0.70;;
12433;SDS011;6281;49.038;8.372;2023-09-19T10:39:32;1.37;;;0.70;;
12433;SDS011;6281;49.038;8.372;2023-09-19T10:42:06;2.53;;;1.00;;
12433;SDS011;6281;49.038;8.372;2023-09-19T10:44:42;2.77;;;0.90;;
12433;SDS011;6281;49.038;8.372;2023-09-19T10:47:11;3.53;;;1.20;;
12433;SDS011;6281;49.038;8.372;2023-09-19T10:49:44;2.93;;;1.23;;
12433;SDS011;6281;49.038;8.372;2023-09-19T10:52:12;2.13;;;1.10;;
12433;SDS011;6281;49.038;8.372;2023-09-19T10:54:46;3.83;;;1.23;;
12433;SDS011;6281;49.038;8.372;2023-09-19T10:57:19;1.63;;;1.13;;
12433;SDS011;6281;49.038;8.372;2023-09-19T11:00:02;1.53;;;1.00;;
12433;SDS011;6281;49.038;8.372;2023-09-19T11:08:51;1.33;;;0.80;;
12433;SDS011;6281;49.038;8.372;2023-09-19T11:14:38;1.70;;;0.80;;
12433;SDS011;6281;49.038;8.372;2023-09-19T11:20:25;5.93;;;1.00;;
12433;SDS011;6281;49.038;8.372;2023-09-19T11:23:20;2.27;;;1.00;;
12433;SDS011;6281;49.038;8.372;2023-09-19T11:25:48;4.50;;;1.40;;
12433;SDS011;6281;49.038;8.372;2023-09-19T11:28:35;2.50;;;1.10;;
12433;SDS011;6281;49.038;8.372;2023-09-19T11:40:35;1.73;;;0.80;;
12433;SDS011;6281;49.038;8.372;2023-09-19T11:46:13;1.80;;;0.90;;
12433;SDS011;6281;49.038;8.372;2023-09-19T11:48:42;3.17;;;1.00;;
12433;SDS011;6281;49.038;8.372;2023-09-19T11:51:13;1.80;;;0.90;;
12433;SDS011;6281;49.038;8.372;2023-09-19T11:53:50;2.13;;;0.80;;
12433;SDS011;6281;49.038;8.372;2023-09-19T11:56:18;2.03;;;0.90;;
12433;SDS011;6281;49.038;8.372;2023-09-19T11:58:50;2.40;;;0.87;;
12433;SDS011;6281;49.038;8.372;2023-09-19T12:01:22;1.60;;;0.73;;
12433;SDS011;6281;49.038;8.372;2023-09-19T12:03:53;2.30;;;1.10;;
12433;SDS011;6281;49.038;8.372;2023-09-19T12:06:23;1.60;;;0.90;;
12433;SDS011;6281;49.038;8.372;2023-09-19T12:08:56;1.77;;;0.80;;
12433;SDS011;6281;49.038;8.372;2023-09-19T12:11:28;2.33;;;1.00;;
12433;SDS011;6281;49.038;8.372;2023-09-19T12:13:59;1.63;;;0.97;;
12433;SDS011;6281;49.038;8.372;2023-09-19T12:16:33;2.27;;;1.07;;
12433;SDS011;6281;49.038;8.372;2023-09-19T12:19:17;2.50;;;1.00;;
12433;SDS011;6281;49.038;8.372;2023-09-19T12:21:53;2.80;;;1.10;;
12433;SDS011;6281;49.038;8.372;2023-09-19T12:24:21;1.37;;;0.70;;
12433;SDS011;6281;49.038;8.372;2023-09-19T12:26:51;2.53;;;0.80;;
12433;SDS011;6281;49.038;8.372;2023-09-19T12:29:19;7.87;;;1.00;;
12433;SDS011;6281;49.038;8.372;2023-09-19T12:31:54;4.20;;;0.90;;
12433;SDS011;6281;49.038;8.372;2023-09-19T12:34:23;1.20;;;0.80;;
12433;SDS011;6281;49.038;8.372;2023-09-19T12:37:06;1.77;;;0.90;;
12433;SDS011;6281;49.038;8.372;2023-09-19T12:39:40;1.45;;;1.00;;
12433;SDS011;6281;49.038;8.372;2023-09-19T12:42:09;1.55;;;0.90;;
12433;SDS011;6281;49.038;8.372;2023-09-19T12:44:40;2.25;;;1.20;;
12433;SDS011;6281;49.038;8.372;2023-09-19T12:47:12;2.47;;;1.00;;
12433;SDS011;6281;49.038;8.372;2023-09-19T12:52:40;1.73;;;1.35;;
12433;SDS011;6281;49.038;8.372;2023-09-19T12:55:25;1.83;;;0.90;;
12433;SDS011;6281;49.038;8.372;2023-09-19T12:58:03;1.93;;;1.10;;
12433;SDS011;6281;49.038;8.372;2023-09-19T13:00:38;1.73;;;1.10;;
12433;SDS011;6281;49.038;8.372;2023-09-19T13:03:15;1.50;;;0.80;;
12433;SDS011;6281;49.038;8.372;2023-09-19T13:05:51;1.55;;;1.00;;
12433;SDS011;6281;49.038;8.372;2023-09-19T13:08:26;2.27;;;1.10;;
12433;SDS011;6281;49.038;8.372;2023-09-19T13:11:12;1.90;;;1.20;;
12433;SDS011;6281;49.038;8.372;2023-09-19T13:13:43;1.37;;;1.03;;
12433;SDS011;6281;49.038;8.372;2023-09-19T13:16:14;1.17;;;0.80;;
12433;SDS011;6281;49.038;8.372;2023-09-19T13:18:48;1.83;;;1.07;;
12433;SDS011;6281;49.038;8.372;2023-09-19T13:21:29;1.50;;;0.90;;
12433;SDS011;6281;49.038;8.372;2023-09-19T13:24:20;1.23;;;0.80;;
12433;SDS011;6281;49.038;8.372;2023-09-19T13:26:51;2.88;;;1.05;;
12433;SDS011;6281;49.038;8.372;2023-09-19T13:29:20;1.80;;;1.00;;
12433;SDS011;6281;49.038;8.372;2023-09-19T13:31:49;1.20;;;1.08;;
12433;SDS011;6281;49.038;8.372;2023-09-19T13:34:20;1.40;;;0.80;;
12433;SDS011;6281;49.038;8.372;2023-09-19T13:36:47;1.60;;;0.95;;
12433;SDS011;6281;49.038;8.372;2023-09-19T13:39:14;1.73;;;1.13;;
12433;SDS011;6281;49.038;8.372;2023-09-19T13:41:47;0.80;;;0.80;;
12433;SDS011;6281;49.038;8.372;2023-09-19T13:44:17;1.45;;;0.90;;
12433;SDS011;6281;49.038;8.372;2023-09-19T13:46:44;1.98;;;0.80;;
12433;SDS011;6281;49.038;8.372;2023-09-19T13:49:12;1.60;;;0.90;;
12433;SDS011;6281;49.038;8.372;2023-09-19T13:51:40;0.88;;;0.80;;
12433;SDS011;6281;49.038;8.372;2023-09-19T13:54:08;1.77;;;0.87;;
12433;SDS011;6281;49.038;8.372;2023-09-19T13:56:44;2.27;;;0.77;;
12433;SDS011;6281;49.038;8.372;2023-09-19T13:59:11;2.03;;;1.00;;
12433;SDS011;6281;49.038;8.372;2023-09-19T14:01:37;1.05;;;0.85;;
12433;SDS011;6281;49.038;8.372;2023-09-19T14:04:05;2.60;;;0.80;;
12433;SDS011;6281;49.038;8.372;2023-09-19T14:06:32;2.10;;;0.90;;
12433;SDS011;6281;49.038;8.372;2023-09-19T14:09:00;2.50;;;1.10;;
12433;SDS011;6281;49.038;8.372;2023-09-19T14:11:30;1.77;;;0.83;;
12433;SDS011;6281;49.038;8.372;2023-09-19T14:13:57;2.53;;;0.90;;
12433;SDS011;6281;49.038;8.372;2023-09-19T14:16:26;1.53;;;0.93;;
12433;SDS011;6281;49.038;8.372;2023-09-19T14:18:56;1.73;;;1.00;;
12433;SDS011;6281;49.038;8.372;2023-09-19T14:21:23;1.10;;;1.00;;
12433;SDS011;6281;49.038;8.372;2023-09-19T14:23:53;1.03;;;0.93;;
12433;SDS011;6281;49.038;8.372;2023-09-19T14:26:22;1.67;;;1.00;;
12433;SDS011;6281;49.038;8.372;2023-09-19T14:28:49;1.40;;;0.95;;
12433;SDS011;6281;49.038;8.372;2023-09-19T14:31:16;1.58;;;0.88;;
12433;SDS011;6281;49.038;8.372;2023-09-19T14:33:43;1.35;;;0.80;;
12433;SDS011;6281;49.038;8.372;2023-09-19T14:36:10;1.48;;;0.90;;
12433;SDS011;6281;49.038;8.372;2023-09-19T14:38:38;1.20;;;1.00;;
12433;SDS011;6281;49.038;8.372;2023-09-19T14:41:05;0.82;;;0.70;;
12433;SDS011;6281;49.038;8.372;2023-09-19T14:43:35;4.55;;;1.00;;
12433;SDS011;6281;49.038;8.372;2023-09-19T14:46:02;1.67;;;0.80;;
12433;SDS011;6281;49.038;8.372;2023-09-19T14:48:30;1.67;;;1.00;;
12433;SDS011;6281;49.038;8.372;2023-09-19T14:51:01;1.80;;;0.87;;
12433;SDS011;6281;49.038;8.372;2023-09-19T14:53:28;0.77;;;0.70;;
12433;SDS011;6281;49.038;8.372;2023-09-19T14:55:55;1.10;;;0.80;;
12433;SDS011;6281;49.038;8.372;2023-09-19T14:58:22;1.43;;;0.80;;
12433;SDS011;6281;49.038;8.372;2023-09-19T15:00:52;1.80;;;0.90;;
12433;SDS011;6281;49.038;8.372;2023-09-19T15:03:19;1.87;;;1.00;;
12433;SDS011;6281;49.038;8.372;2023-09-19T15:05:49;1.00;;;0.90;;
12433;SDS011;6281;49.038;8.372;2023-09-19T15:08:17;2.67;;;1.00;;
12433;SDS011;6281;49.038;8.372;2023-09-19T15:10:49;1.27;;;0.80;;
12433;SDS011;6281;49.038;8.372;2023-09-19T15:13:17;0.90;;;0.70;;
12433;SDS011;6281;49.038;8.372;2023-09-19T15:15:48;2.07;;;1.13;;
12433;SDS011;6281;49.038;8.372;2023-09-19T15:18:17;1.43;;;0.80;;
12433;SDS011;6281;49.038;8.372;2023-09-19T15:20:46;2.47;;;0.90;;
12433;SDS011;6281;49.038;8.372;2023-09-19T15:23:13;1.93;;;0.80;;
12433;SDS011;6281;49.038;8.372;2023-09-19T15:25:47;2.80;;;1.10;;
12433;SDS011;6281;49.038;8.372;2023-09-19T15:28:14;1.43;;;0.80;;
12433;SDS011;6281;49.038;8.372;2023-09-19T15:30:44;4.27;;;1.10;;
12433;SDS011;6281;49.038;8.372;2023-09-19T15:33:12;7.27;;;0.83;;
12433;SDS011;6281;49.038;8.372;2023-09-19T15:35:40;1.50;;;0.93;;
12433;SDS011;6281;49.038;8.372;2023-09-19T15:38:08;1.67;;;0.90;;
12433;SDS011;6281;49.038;8.372;2023-09-19T15:40:45;1.93;;;0.90;;
12433;SDS011;6281;49.038;8.372;2023-09-19T15:43:14;2.40;;;0.77;;
12433;SDS011;6281;49.038;8.372;2023-09-19T15:45:42;1.67;;;1.00;;
12433;SDS011;6281;49.038;8.372;2023-09-19T15:48:10;3.77;;;0.90;;
12433;SDS011;6281;49.038;8.372;2023-09-19T15:50:37;1.00;;;0.87;;
12433;SDS011;6281;49.038;8.372;2023-09-19T15:53:06;0.90;;;0.80;;
12433;SDS011;6281;49.038;8.372;2023-09-19T15:55:35;1.40;;;0.70;;